Time;durP1;ratioP1;P1;durP2;ratioP2;P2;SDS_P1;SDS_P2;PMS_P1;PMS_P2;Temp;Humidity;BMP_temperature;BMP_pressure;BME280_temperature;BME280_humidity;BME280_pressure;Samples;Min_cycle;Max_cycle;Signal;HPM_P1;HPM_P2
2021/01/21 00:00:05;;;;;;;5.03;2.35;;;8.30;80.60;;;;;;5053879;28;20186;-65
2021/01/21 00:02:31;;;;;;;5.97;2.45;;;8.30;80.80;;;;;;5054364;28;20036;-66
2021/01/21 00:04:57;;;;;;;5.22;2.25;;;8.30;81.30;;;;;;5066411;28;20540;-65
2021/01/21 00:07:22;;;;;;;4.38;2.28;;;8.30;80.80;;;;;;5067754;28;20025;-67
2021/01/21 00:09:47;;;;;;;4.72;2.58;;;8.30;80.80;;;;;;5053132;28;20103;-66
2021/01/21 00:12:13;;;;;;;4.35;2.53;;;8.20;80.70;;;;;;5055343;28;20024;-66
2021/01/21 00:14:39;;;;;;;4.55;2.20;;;8.20;80.90;;;;;;5073099;28;20036;-66
2021/01/21 00:17:04;;;;;;;4.53;2.42;;;8.20;80.90;;;;;;5068869;28;20534;-65
2021/01/21 00:19:29;;;;;;;4.30;2.38;;;8.10;81.00;;;;;;5071663;28;20031;-66
2021/01/21 00:21:55;;;;;;;4.63;2.17;;;8.10;81.00;;;;;;5068324;28;20455;-66
2021/01/21 00:24:20;;;;;;;4.38;2.60;;;8.10;81.00;;;;;;5069383;28;20078;-66
2021/01/21 00:26:46;;;;;;;5.43;2.38;;;8.10;80.80;;;;;;5055493;28;20482;-66
2021/01/21 00:29:12;;;;;;;4.50;2.67;;;8.10;80.90;;;;;;5058136;28;20130;-66
2021/01/21 00:31:37;;;;;;;4.07;2.28;;;8.00;81.00;;;;;;5067175;28;20064;-66
2021/01/21 00:34:04;;;;;;;3.78;2.45;;;8.00;81.00;;;;;;5059674;28;20029;-66
2021/01/21 00:36:30;;;;;;;7.38;2.65;;;8.00;81.10;;;;;;5058193;28;20059;-66
2021/01/21 00:38:55;;;;;;;4.32;2.17;;;8.00;81.20;;;;;;5054156;28;20474;-66
2021/01/21 00:41:20;;;;;;;4.45;2.40;;;8.00;81.10;;;;;;5057334;28;20203;-65
2021/01/21 00:43:46;;;;;;;7.03;2.40;;;8.00;81.10;;;;;;5052384;28;20045;-65
2021/01/21 00:46:12;;;;;;;4.85;2.25;;;8.00;81.00;;;;;;5053207;28;20064;-65
2021/01/21 00:48:37;;;;;;;4.80;2.40;;;7.90;81.00;;;;;;5062011;28;20035;-65
2021/01/21 00:51:03;;;;;;;4.57;2.45;;;7.90;81.10;;;;;;5052947;28;20032;-65
2021/01/21 00:53:28;;;;;;;5.00;3.15;;;7.90;81.00;;;;;;5052158;28;20028;-66
2021/01/21 00:55:54;;;;;;;5.45;2.30;;;7.90;81.00;;;;;;5052284;28;20043;-65
2021/01/21 00:58:19;;;;;;;3.47;1.95;;;7.90;81.00;;;;;;5052377;28;20048;-64
2021/01/21 01:00:45;;;;;;;4.75;2.55;;;7.90;80.80;;;;;;5052670;28;20028;-64
2021/01/21 01:03:10;;;;;;;4.93;2.30;;;7.90;80.70;;;;;;5052077;28;20035;-65
2021/01/21 01:05:36;;;;;;;3.55;2.13;;;7.80;80.60;;;;;;5062749;28;20105;-65
2021/01/21 01:08:02;;;;;;;4.13;2.28;;;7.80;80.80;;;;;;5064614;28;20029;-64
2021/01/21 01:10:28;;;;;;;6.05;2.42;;;7.80;80.70;;;;;;5052106;28;20021;-65
2021/01/21 01:12:53;;;;;;;4.60;2.30;;;7.80;80.80;;;;;;5052196;28;20437;-65
2021/01/21 01:15:27;;;;;;;3.35;1.92;;;7.90;80.70;;;;;;5052314;28;20017;-65
2021/01/21 01:17:53;;;;;;;3.38;1.90;;;7.80;80.70;;;;;;5056070;28;20032;-65
2021/01/21 01:20:19;;;;;;;3.45;2.00;;;7.80;80.60;;;;;;5052421;28;20043;-65
2021/01/21 01:22:52;;;;;;;3.28;2.08;;;7.80;80.50;;;;;;5051773;28;20481;-64
2021/01/21 01:25:18;;;;;;;3.83;2.13;;;7.80;80.40;;;;;;5051841;28;20021;-64
2021/01/21 01:27:43;;;;;;;5.90;2.05;;;7.80;80.50;;;;;;5052185;28;20072;-65
2021/01/21 01:30:13;;;;;;;2.92;2.03;;;7.90;80.50;;;;;;5071455;28;20432;-65
2021/01/21 01:32:39;;;;;;;4.63;2.10;;;7.90;80.50;;;;;;5064521;28;20031;-65
2021/01/21 01:35:05;;;;;;;3.92;2.38;;;7.80;80.20;;;;;;5071880;28;20119;-65
2021/01/21 01:37:31;;;;;;;3.55;2.10;;;7.90;80.10;;;;;;5064051;28;20446;-65
2021/01/21 01:39:57;;;;;;;3.90;2.10;;;7.90;80.10;;;;;;5082716;28;20032;-65
2021/01/21 01:42:23;;;;;;;3.58;1.92;;;7.90;79.90;;;;;;5064311;28;20029;-64
2021/01/21 01:44:48;;;;;;;3.10;2.13;;;7.90;79.70;;;;;;5051523;28;20048;-65
2021/01/21 01:47:15;;;;;;;4.03;2.28;;;8.00;79.40;;;;;;5051737;28;20827;-65
2021/01/21 01:49:40;;;;;;;3.47;1.95;;;8.00;79.10;;;;;;5070840;28;20024;-66
2021/01/21 01:52:06;;;;;;;2.92;1.83;;;8.00;78.90;;;;;;5068748;28;20032;-65
2021/01/21 01:54:31;;;;;;;3.92;2.15;;;8.10;78.90;;;;;;5071038;28;20024;-65
2021/01/21 01:57:00;;;;;;;3.08;1.80;;;8.10;78.80;;;;;;5058405;28;20060;-65
2021/01/21 01:59:26;;;;;;;3.72;1.98;;;8.10;78.70;;;;;;5051278;28;20021;-65
2021/01/21 02:01:54;;;;;;;3.28;1.77;;;8.10;78.20;;;;;;5051016;28;20025;-65
2021/01/21 02:04:20;;;;;;;2.35;1.52;;;8.10;77.90;;;;;;5070375;28;20035;-65
2021/01/21 02:06:45;;;;;;;3.30;2.00;;;8.10;77.70;;;;;;5070467;28;20024;-65
2021/01/21 02:09:11;;;;;;;2.90;1.80;;;8.10;77.80;;;;;;5050841;28;20539;-66
2021/01/21 02:12:01;;;;;;;3.20;2.03;;;8.20;77.60;;;;;;5051223;28;20060;-66
2021/01/21 02:14:50;;;;;;;2.58;1.60;;;8.20;77.40;;;;;;5052086;28;20017;-66
2021/01/21 02:17:40;;;;;;;3.63;1.90;;;8.20;77.10;;;;;;5067956;28;20072;-66
2021/01/21 02:20:33;;;;;;;3.20;1.80;;;8.20;77.30;;;;;;5069149;28;20076;-66
2021/01/21 02:23:27;;;;;;;3.40;1.80;;;8.20;77.00;;;;;;5050996;28;20036;-66
2021/01/21 02:26:00;;;;;;;2.60;1.67;;;8.20;76.70;;;;;;5050485;28;20381;-66
2021/01/21 02:28:51;;;;;;;2.22;1.70;;;8.20;76.40;;;;;;5050992;28;20084;-66
2021/01/21 02:31:47;;;;;;;3.97;2.10;;;8.20;76.40;;;;;;5055403;28;20813;-66
2021/01/21 02:34:21;;;;;;;3.25;1.85;;;8.20;76.60;;;;;;5070996;28;20035;-66
2021/01/21 02:36:54;;;;;;;4.50;1.77;;;8.30;76.10;;;;;;5056173;28;20515;-66
2021/01/21 02:39:21;;;;;;;3.38;1.67;;;8.30;76.10;;;;;;5057920;28;20271;-66
2021/01/21 02:41:47;;;;;;;5.63;2.03;;;8.30;75.80;;;;;;5051001;28;20507;-66
2021/01/21 02:44:13;;;;;;;2.85;1.50;;;8.30;75.80;;;;;;5050580;28;20048;-66
2021/01/21 02:46:39;;;;;;;3.47;1.77;;;8.30;75.50;;;;;;5050377;28;20029;-65
2021/01/21 02:49:05;;;;;;;4.57;2.05;;;8.30;75.60;;;;;;5050487;28;20017;-65
2021/01/21 02:52:17;;;;;;;3.42;1.88;;;8.40;75.70;;;;;;5049951;28;20033;-65
2021/01/21 02:55:13;;;;;;;4.78;1.73;;;8.40;75.80;;;;;;5001171;28;20018;-65
2021/01/21 02:57:57;;;;;;;3.30;1.83;;;8.40;75.70;;;;;;4989089;28;20700;-66
2021/01/21 03:00:23;;;;;;;5.50;2.25;;;8.40;75.30;;;;;;5041628;28;20037;-65
2021/01/21 03:02:55;;;;;;;3.10;1.90;;;8.40;74.80;;;;;;5050860;28;20846;-65
2021/01/21 03:05:22;;;;;;;2.53;1.52;;;8.50;74.80;;;;;;5051870;28;20040;-65
2021/01/21 03:07:48;;;;;;;4.95;1.63;;;8.50;74.70;;;;;;5050336;28;20044;-65
2021/01/21 03:10:19;;;;;;;3.60;1.73;;;8.50;74.70;;;;;;5050591;28;20029;-65
2021/01/21 03:12:51;;;;;;;3.28;1.75;;;8.50;74.60;;;;;;5050117;28;20045;-66
2021/01/21 03:15:16;;;;;;;4.40;1.80;;;8.60;74.50;;;;;;5050950;28;20032;-66
2021/01/21 03:17:42;;;;;;;2.85;1.38;;;8.50;74.20;;;;;;5050111;28;20021;-65
2021/01/21 03:20:08;;;;;;;3.05;1.80;;;8.50;74.30;;;;;;5051725;28;20036;-65
2021/01/21 03:22:33;;;;;;;2.05;1.50;;;8.60;74.30;;;;;;5056892;28;20044;-65
2021/01/21 03:24:59;;;;;;;2.33;1.60;;;8.60;74.00;;;;;;5054111;28;20025;-65
2021/01/21 03:27:24;;;;;;;2.22;1.35;;;8.60;73.90;;;;;;5053730;28;20115;-65
2021/01/21 03:29:50;;;;;;;3.03;1.48;;;8.60;73.70;;;;;;5054062;28;20025;-66
2021/01/21 03:32:15;;;;;;;3.03;1.60;;;8.60;73.50;;;;;;5055421;28;20170;-65
2021/01/21 03:34:41;;;;;;;4.60;1.50;;;8.60;72.70;;;;;;5074065;28;20043;-65
2021/01/21 03:37:06;;;;;;;3.17;1.48;;;8.60;73.00;;;;;;5056043;28;20036;-65
2021/01/21 03:39:32;;;;;;;2.70;1.80;;;8.70;72.70;;;;;;5053788;28;20093;-65
2021/01/21 03:41:57;;;;;;;2.28;1.40;;;8.70;72.80;;;;;;5053824;28;20041;-66
2021/01/21 03:44:23;;;;;;;2.78;1.48;;;8.60;72.70;;;;;;5053550;28;20056;-64
2021/01/21 03:46:48;;;;;;;4.80;1.60;;;8.70;73.20;;;;;;5053773;28;20025;-65
2021/01/21 03:49:14;;;;;;;4.50;1.48;;;8.60;72.70;;;;;;5053057;28;20576;-65
2021/01/21 03:51:39;;;;;;;3.17;1.52;;;8.70;72.80;;;;;;5053657;28;20028;-65
2021/01/21 03:54:05;;;;;;;4.70;1.80;;;8.70;72.70;;;;;;5054203;28;20017;-65
2021/01/21 03:56:30;;;;;;;2.88;1.70;;;8.70;72.80;;;;;;5053303;28;20048;-65
2021/01/21 03:58:56;;;;;;;4.75;1.63;;;8.70;72.60;;;;;;5053506;28;20029;-65
2021/01/21 04:01:21;;;;;;;4.00;1.60;;;8.60;72.70;;;;;;5053083;28;20091;-65
2021/01/21 04:03:47;;;;;;;2.50;1.55;;;8.60;72.50;;;;;;5053391;28;20493;-65
2021/01/21 04:06:12;;;;;;;4.88;1.60;;;8.60;72.60;;;;;;5053773;28;20082;-65
2021/01/21 04:08:38;;;;;;;2.67;1.58;;;8.60;72.60;;;;;;5053137;28;20017;-65
2021/01/21 04:11:03;;;;;;;2.15;1.42;;;8.60;72.60;;;;;;5055036;28;20029;-65
2021/01/21 04:13:29;;;;;;;2.28;1.30;;;8.70;72.60;;;;;;5053264;28;20025;-65
2021/01/21 04:15:54;;;;;;;4.20;1.50;;;8.70;72.60;;;;;;5059359;28;20032;-64
2021/01/21 04:18:20;;;;;;;2.55;1.73;;;8.70;72.60;;;;;;5070790;28;20028;-65
2021/01/21 04:20:45;;;;;;;2.15;1.30;;;8.70;72.40;;;;;;5053183;28;20033;-64
2021/01/21 04:23:11;;;;;;;2.55;1.40;;;8.70;72.30;;;;;;5052131;28;20033;-65
2021/01/21 04:25:36;;;;;;;2.35;1.40;;;8.70;72.10;;;;;;5056235;28;20474;-65
2021/01/21 04:28:03;;;;;;;4.53;1.50;;;8.60;72.20;;;;;;5070657;28;20097;-65
2021/01/21 04:30:29;;;;;;;4.40;1.48;;;8.60;72.10;;;;;;5054693;28;20485;-64
2021/01/21 04:32:54;;;;;;;3.45;1.67;;;8.70;72.70;;;;;;5053207;28;20115;-65
2021/01/21 04:35:20;;;;;;;3.63;1.60;;;8.70;72.10;;;;;;5052988;28;20056;-65
2021/01/21 04:37:45;;;;;;;3.22;1.80;;;8.70;72.10;;;;;;5052299;28;20126;-65
2021/01/21 04:40:12;;;;;;;2.22;1.40;;;8.70;71.70;;;;;;5053783;28;20025;-65
2021/01/21 04:42:37;;;;;;;4.78;1.60;;;8.70;72.20;;;;;;5053002;28;20039;-64
2021/01/21 04:45:05;;;;;;;2.63;1.60;;;8.80;72.10;;;;;;5052336;28;20136;-66
2021/01/21 04:47:31;;;;;;;2.38;1.40;;;8.80;72.20;;;;;;5052403;28;20028;-66
2021/01/21 04:49:57;;;;;;;2.72;1.80;;;8.80;71.70;;;;;;5058893;28;20099;-66
2021/01/21 04:52:24;;;;;;;2.78;1.70;;;8.80;71.60;;;;;;5052394;28;20505;-65
2021/01/21 04:54:57;;;;;;;2.65;1.50;;;8.80;71.50;;;;;;5071697;28;20082;-65
2021/01/21 04:57:53;;;;;;;4.30;1.60;;;8.70;71.60;;;;;;5053469;28;20028;-65
2021/01/21 05:00:20;;;;;;;2.67;1.42;;;8.80;71.60;;;;;;5051451;28;20029;-65
2021/01/21 05:02:48;;;;;;;4.30;2.10;;;8.70;71.40;;;;;;5050560;28;20588;-67
2021/01/21 05:05:14;;;;;;;3.55;1.65;;;8.70;71.20;;;;;;5051735;28;20036;-65
2021/01/21 05:07:40;;;;;;;3.45;1.75;;;8.70;71.40;;;;;;5071406;28;20020;-65
2021/01/21 05:10:09;;;;;;;4.80;1.83;;;8.70;71.50;;;;;;5051133;28;20025;-65
2021/01/21 05:12:35;;;;;;;3.65;1.90;;;8.70;71.50;;;;;;5052317;28;20035;-66
2021/01/21 05:15:01;;;;;;;2.88;1.95;;;8.70;71.70;;;;;;5051953;28;20063;-65
2021/01/21 05:17:27;;;;;;;3.85;1.90;;;8.70;71.60;;;;;;5063803;28;20509;-65
2021/01/21 05:19:53;;;;;;;4.00;1.92;;;8.70;71.90;;;;;;5053968;28;20195;-66
2021/01/21 05:22:20;;;;;;;3.20;2.17;;;8.70;71.90;;;;;;5050552;28;20112;-65
2021/01/21 05:24:46;;;;;;;5.78;1.98;;;8.70;72.30;;;;;;5050421;28;20436;-66
2021/01/21 05:27:14;;;;;;;4.05;1.98;;;8.70;72.10;;;;;;5050621;28;20094;-65
2021/01/21 05:29:43;;;;;;;4.30;2.05;;;8.70;72.10;;;;;;5051164;28;20481;-65
2021/01/21 05:32:10;;;;;;;4.38;2.55;;;8.70;71.90;;;;;;5051387;28;20029;-66
2021/01/21 05:34:35;;;;;;;3.88;2.08;;;8.70;72.00;;;;;;5051084;28;20025;-65
2021/01/21 05:37:01;;;;;;;6.05;2.60;;;8.70;72.00;;;;;;5051909;28;20342;-65
2021/01/21 05:39:36;;;;;;;4.30;2.25;;;8.70;72.00;;;;;;5061342;28;20029;-66
2021/01/21 05:42:02;;;;;;;3.65;2.30;;;8.70;72.10;;;;;;5053681;28;20040;-66
2021/01/21 05:44:28;;;;;;;6.03;2.60;;;8.70;72.10;;;;;;5050780;28;20065;-66
2021/01/21 05:46:53;;;;;;;6.20;2.53;;;8.70;72.00;;;;;;5050999;28;20041;-66
2021/01/21 05:49:19;;;;;;;4.28;2.38;;;8.70;72.10;;;;;;5061907;28;20070;-65
2021/01/21 05:51:46;;;;;;;5.18;2.70;;;8.70;72.20;;;;;;5056376;28;20029;-65
2021/01/21 05:54:12;;;;;;;5.57;2.70;;;8.70;71.90;;;;;;5053648;28;20033;-66
2021/01/21 05:56:38;;;;;;;5.75;2.88;;;8.70;72.00;;;;;;5051259;28;20436;-65
2021/01/21 05:59:04;;;;;;;6.22;3.10;;;8.70;71.90;;;;;;5051809;28;20111;-65
2021/01/21 06:01:29;;;;;;;5.78;3.10;;;8.70;71.90;;;;;;5052577;28;20120;-65
2021/01/21 06:03:57;;;;;;;4.45;2.88;;;8.70;71.90;;;;;;5051593;28;20068;-65
2021/01/21 06:06:26;;;;;;;4.85;2.97;;;8.70;72.00;;;;;;5051523;28;20029;-65
2021/01/21 06:08:53;;;;;;;4.45;2.60;;;8.70;72.10;;;;;;5051408;28;20031;-66
2021/01/21 06:11:20;;;;;;;5.13;2.72;;;8.70;72.10;;;;;;5051300;28;20059;-65
2021/01/21 06:13:46;;;;;;;5.82;3.22;;;8.70;72.10;;;;;;5051217;28;20017;-65
2021/01/21 06:16:12;;;;;;;8.50;3.42;;;8.70;72.10;;;;;;5051526;28;20512;-66
2021/01/21 06:18:37;;;;;;;7.80;3.78;;;8.70;71.90;;;;;;5051162;28;20029;-66
2021/01/21 06:21:04;;;;;;;7.03;3.92;;;8.70;71.90;;;;;;5054846;28;20029;-66
2021/01/21 06:23:35;;;;;;;5.43;2.92;;;8.70;72.10;;;;;;5071294;28;20036;-65
2021/01/21 06:26:00;;;;;;;5.13;2.85;;;8.70;72.50;;;;;;5061176;28;20378;-65
2021/01/21 06:28:27;;;;;;;4.63;2.90;;;8.70;72.10;;;;;;5069580;28;20036;-66
2021/01/21 06:30:57;;;;;;;6.05;3.35;;;8.70;72.10;;;;;;5057934;28;20111;-66
2021/01/21 06:33:27;;;;;;;6.75;3.15;;;8.70;72.00;;;;;;5051257;28;20027;-66
2021/01/21 06:36:02;;;;;;;4.85;3.00;;;8.70;71.90;;;;;;5053724;28;20025;-66
2021/01/21 06:38:38;;;;;;;5.22;2.92;;;8.70;72.10;;;;;;5066610;28;20037;-67
2021/01/21 06:41:07;;;;;;;6.75;3.50;;;8.70;72.10;;;;;;5051052;28;20041;-69
2021/01/21 06:43:37;;;;;;;5.72;2.90;;;8.80;71.90;;;;;;5069061;28;20108;-66
2021/01/21 06:46:03;;;;;;;4.82;2.55;;;8.70;71.60;;;;;;5055575;28;20371;-67
2021/01/21 06:48:29;;;;;;;4.95;2.80;;;8.80;71.60;;;;;;5051607;28;20024;-66
2021/01/21 06:50:56;;;;;;;6.00;3.80;;;8.70;71.50;;;;;;5051035;28;20025;-67
2021/01/21 06:53:22;;;;;;;5.07;3.00;;;8.80;71.40;;;;;;5053764;28;20104;-67
2021/01/21 06:55:51;;;;;;;4.75;2.83;;;8.80;71.20;;;;;;5053386;28;20039;-68
2021/01/21 06:58:54;;;;;;;4.43;2.70;;;8.80;71.10;;;;;;5054660;28;20045;-67
2021/01/21 07:01:42;;;;;;;7.03;3.38;;;8.80;71.00;;;;;;5058068;28;20159;-66
2021/01/21 07:04:11;;;;;;;5.57;2.83;;;8.90;70.90;;;;;;5058306;28;20036;-66
2021/01/21 07:06:52;;;;;;;4.93;2.70;;;8.90;70.70;;;;;;5053710;28;20044;-68
2021/01/21 07:09:20;;;;;;;3.83;2.25;;;8.90;70.40;;;;;;5069256;28;20111;-68
2021/01/21 07:11:46;;;;;;;4.93;2.20;;;9.00;70.30;;;;;;5061317;28;20355;-67
2021/01/21 07:14:16;;;;;;;5.18;2.55;;;9.00;70.30;;;;;;5054414;28;20044;-67
2021/01/21 07:16:55;;;;;;;3.70;2.22;;;9.00;69.90;;;;;;5057256;28;20032;-67
2021/01/21 07:19:42;;;;;;;3.90;2.30;;;9.10;69.90;;;;;;5066071;28;20033;-67
2021/01/21 07:22:19;;;;;;;4.50;2.50;;;9.10;69.60;;;;;;5056777;28;20033;-67
2021/01/21 07:24:49;;;;;;;3.80;2.30;;;9.10;69.70;;;;;;5054434;28;20040;-67
2021/01/21 07:27:18;;;;;;;4.50;2.17;;;9.10;68.40;;;;;;5067711;28;20538;-67
2021/01/21 07:29:44;;;;;;;5.13;2.10;;;9.20;68.80;;;;;;5073796;28;20024;-67
2021/01/21 07:32:09;;;;;;;5.90;2.40;;;9.20;68.70;;;;;;5056688;28;20025;-67
2021/01/21 07:34:45;;;;;;;3.75;2.20;;;9.20;68.30;;;;;;5066191;28;20030;-67
2021/01/21 07:37:26;;;;;;;5.15;2.05;;;9.30;68.40;;;;;;5055848;28;20037;-67
2021/01/21 07:40:02;;;;;;;4.45;2.22;;;9.30;67.90;;;;;;5064862;28;20036;-67
2021/01/21 07:42:33;;;;;;;3.88;2.10;;;9.30;67.80;;;;;;5055406;28;20632;-67
2021/01/21 07:45:06;;;;;;;3.75;2.17;;;9.30;67.90;;;;;;5053820;28;20063;-67
2021/01/21 07:47:31;;;;;;;5.57;2.47;;;9.40;67.50;;;;;;5067388;28;20044;-67
2021/01/21 07:50:19;;;;;;;3.72;2.30;;;9.40;67.10;;;;;;5073818;28;20473;-68
2021/01/21 07:52:45;;;;;;;5.03;2.38;;;9.40;67.50;;;;;;5058176;28;20571;-67
2021/01/21 07:55:11;;;;;;;4.15;2.10;;;9.40;67.20;;;;;;5053863;28;20064;-67
2021/01/21 07:57:37;;;;;;;6.22;2.63;;;9.40;67.00;;;;;;5069566;28;20040;-64
2021/01/21 08:00:08;;;;;;;5.38;2.65;;;9.40;67.00;;;;;;5072061;28;20495;-66
2021/01/21 08:02:45;;;;;;;4.80;2.42;;;9.50;67.40;;;;;;5070819;28;20057;-68
2021/01/21 08:05:13;;;;;;;4.30;2.80;;;9.50;67.20;;;;;;5060828;28;20128;-68
2021/01/21 08:07:49;;;;;;;3.47;2.35;;;9.50;67.00;;;;;;5067689;28;20024;-68
2021/01/21 08:10:21;;;;;;;4.47;2.30;;;9.60;66.90;;;;;;5054547;28;20039;-68
2021/01/21 08:13:16;;;;;;;3.92;2.10;;;9.60;67.10;;;;;;5053569;28;20866;-69
2021/01/21 08:15:43;;;;;;;4.03;2.10;;;9.70;67.30;;;;;;5059987;28;20037;-68
2021/01/21 08:18:14;;;;;;;3.08;1.85;;;9.70;67.00;;;;;;5069696;28;20036;-67
2021/01/21 08:20:40;;;;;;;6.00;2.53;;;9.70;67.10;;;;;;5053225;28;20455;-68
2021/01/21 08:23:09;;;;;;;3.47;2.13;;;9.80;67.00;;;;;;5053177;28;20025;-68
2021/01/21 08:25:53;;;;;;;4.05;2.17;;;9.90;67.00;;;;;;5052085;28;20028;-68
2021/01/21 08:28:23;;;;;;;4.55;2.50;;;9.90;67.00;;;;;;5051223;28;20060;-67
2021/01/21 08:30:49;;;;;;;3.67;1.95;;;10.00;66.90;;;;;;5061191;28;20032;-68
2021/01/21 08:33:28;;;;;;;4.05;1.90;;;10.00;67.00;;;;;;5052857;28;20067;-68
2021/01/21 08:35:59;;;;;;;4.13;2.10;;;10.10;66.90;;;;;;5068139;28;20354;-67
2021/01/21 08:38:30;;;;;;;5.03;2.40;;;10.10;66.50;;;;;;5066790;28;20089;-69
2021/01/21 08:40:56;;;;;;;3.55;1.90;;;10.20;66.60;;;;;;5052639;28;20430;-69
2021/01/21 08:43:23;;;;;;;3.50;2.05;;;10.20;66.40;;;;;;5052092;28;20383;-68
2021/01/21 08:45:49;;;;;;;3.08;1.90;;;10.30;66.30;;;;;;5052048;28;20033;-68
2021/01/21 08:48:27;;;;;;;5.53;1.88;;;10.30;65.90;;;;;;5054300;28;20028;-68
2021/01/21 08:50:53;;;;;;;3.63;2.10;;;10.30;65.80;;;;;;5064045;28;20439;-68
2021/01/21 08:53:23;;;;;;;3.95;2.28;;;10.40;65.90;;;;;;5052286;28;20056;-68
2021/01/21 08:55:51;;;;;;;4.80;1.90;;;10.40;65.70;;;;;;5051935;28;20025;-68
2021/01/21 08:58:18;;;;;;;5.28;1.90;;;10.40;65.60;;;;;;5052216;28;20088;-68
2021/01/21 09:01:04;;;;;;;6.53;2.00;;;10.50;65.50;;;;;;5051361;28;20028;-68
2021/01/21 09:03:53;;;;;;;3.90;2.20;;;10.50;65.40;;;;;;5073210;28;20043;-68
2021/01/21 09:06:19;;;;;;;4.05;1.85;;;10.50;65.20;;;;;;5050561;28;20389;-67
2021/01/21 09:08:56;;;;;;;4.07;1.88;;;10.50;65.30;;;;;;5055762;28;20029;-68
2021/01/21 09:11:33;;;;;;;3.90;2.05;;;10.60;64.90;;;;;;5055317;28;20572;-69
2021/01/21 09:14:03;;;;;;;3.55;2.00;;;10.60;65.30;;;;;;5053256;28;20370;-68
2021/01/21 09:16:48;;;;;;;4.63;2.30;;;10.60;64.40;;;;;;5063415;28;20485;-69
2021/01/21 09:19:15;;;;;;;5.00;2.05;;;10.70;64.50;;;;;;5051128;28;20071;-68
2021/01/21 09:22:00;;;;;;;6.85;2.35;;;10.70;64.40;;;;;;5051761;28;20485;-67
2021/01/21 09:24:26;;;;;;;4.43;1.92;;;10.80;64.40;;;;;;5051577;28;20028;-65
2021/01/21 09:27:07;;;;;;;5.32;2.17;;;10.80;64.60;;;;;;5056777;28;20041;-65
2021/01/21 09:29:58;;;;;;;3.63;2.10;;;10.90;64.00;;;;;;5054913;28;20120;-66
2021/01/21 09:32:31;;;;;;;4.60;2.30;;;10.90;64.20;;;;;;5054313;28;20508;-66
2021/01/21 09:35:06;;;;;;;4.75;2.10;;;10.90;63.40;;;;;;5054239;28;20036;-66
2021/01/21 09:37:37;;;;;;;5.93;2.22;;;11.00;63.50;;;;;;5052391;28;20037;-66
2021/01/21 09:40:14;;;;;;;4.38;2.10;;;11.10;63.50;;;;;;5050770;28;20033;-66
2021/01/21 09:42:39;;;;;;;4.38;1.88;;;11.10;63.30;;;;;;5062693;28;20040;-68
2021/01/21 09:45:07;;;;;;;4.32;2.20;;;11.20;63.20;;;;;;5050384;28;20049;-70
2021/01/21 09:47:32;;;;;;;5.03;2.10;;;11.20;62.80;;;;;;5067763;28;20546;-68
2021/01/21 09:49:58;;;;;;;5.30;2.10;;;11.30;62.80;;;;;;5054348;28;20028;-67
2021/01/21 09:52:23;;;;;;;4.75;2.25;;;11.30;62.70;;;;;;5050469;28;20195;-68
2021/01/21 09:54:49;;;;;;;3.63;1.77;;;11.30;62.20;;;;;;5058544;28;20032;-68
2021/01/21 09:57:14;;;;;;;4.32;2.60;;;11.40;62.50;;;;;;5051518;28;20037;-68
2021/01/21 09:59:43;;;;;;;3.75;1.60;;;11.40;61.50;;;;;;5051079;28;20111;-68
2021/01/21 10:02:09;;;;;;;3.10;1.67;;;11.50;61.50;;;;;;5064951;28;20166;-67
2021/01/21 10:04:36;;;;;;;3.72;1.90;;;11.50;61.60;;;;;;5071424;28;20068;-68
2021/01/21 10:07:03;;;;;;;2.70;1.50;;;11.50;61.40;;;;;;5054664;28;20033;-69
2021/01/21 10:09:29;;;;;;;3.90;1.88;;;11.60;61.30;;;;;;5051092;28;20024;-68
2021/01/21 10:11:54;;;;;;;3.15;1.75;;;11.60;61.60;;;;;;5050946;28;20029;-68
2021/01/21 10:14:20;;;;;;;4.28;2.15;;;11.70;61.60;;;;;;5049764;28;20029;-68
2021/01/21 10:16:45;;;;;;;3.22;1.98;;;11.70;61.10;;;;;;5050261;28;20025;-68
2021/01/21 10:19:11;;;;;;;3.88;1.90;;;11.80;61.20;;;;;;5050414;28;20043;-69
2021/01/21 10:21:36;;;;;;;4.82;2.10;;;11.80;60.90;;;;;;5051094;28;20031;-67
2021/01/21 10:24:02;;;;;;;3.22;1.63;;;11.80;61.10;;;;;;5050055;28;20021;-67
2021/01/21 10:26:28;;;;;;;3.13;1.65;;;11.90;61.10;;;;;;5050626;28;20033;-68
2021/01/21 10:28:53;;;;;;;4.20;1.60;;;12.00;60.80;;;;;;5049994;28;20025;-68
2021/01/21 10:31:19;;;;;;;4.22;1.90;;;12.00;60.80;;;;;;5055801;28;20081;-67
2021/01/21 10:33:44;;;;;;;4.43;1.80;;;12.10;60.90;;;;;;5055355;28;20036;-68
2021/01/21 10:36:10;;;;;;;5.30;2.08;;;12.10;60.50;;;;;;5063528;28;20357;-68
2021/01/21 10:38:38;;;;;;;2.92;1.70;;;12.10;60.10;;;;;;5071661;28;20032;-68
2021/01/21 10:41:05;;;;;;;4.20;1.98;;;12.10;59.90;;;;;;5064966;28;20044;-68
2021/01/21 10:43:31;;;;;;;6.32;2.05;;;12.20;59.90;;;;;;5054548;28;20068;-68
2021/01/21 10:45:56;;;;;;;4.88;1.98;;;12.20;59.90;;;;;;5054790;28;20108;-68
2021/01/21 10:48:22;;;;;;;4.57;1.83;;;12.20;59.90;;;;;;5054754;28;20393;-68
2021/01/21 10:50:47;;;;;;;3.45;1.80;;;12.20;59.70;;;;;;5054826;28;20029;-67
2021/01/21 10:53:13;;;;;;;3.80;2.00;;;12.30;60.10;;;;;;5054649;28;20052;-67
2021/01/21 10:55:38;;;;;;;4.38;2.35;;;12.30;59.90;;;;;;5054985;28;20465;-68
2021/01/21 10:58:05;;;;;;;3.00;1.60;;;12.30;60.10;;;;;;5054265;28;20041;-68
2021/01/21 11:00:30;;;;;;;3.95;1.77;;;12.40;60.20;;;;;;5056705;28;20048;-67
2021/01/21 11:02:56;;;;;;;3.92;1.73;;;12.40;60.10;;;;;;5054914;28;20412;-68
2021/01/21 11:05:22;;;;;;;4.30;1.77;;;12.50;60.00;;;;;;5054632;28;20566;-67
2021/01/21 11:07:48;;;;;;;3.50;1.98;;;12.50;60.10;;;;;;5054294;28;20053;-68
2021/01/21 11:10:13;;;;;;;4.03;2.35;;;12.50;59.80;;;;;;5054965;28;20025;-68
2021/01/21 11:12:39;;;;;;;5.13;2.03;;;12.60;59.80;;;;;;5052519;28;20025;-68
2021/01/21 11:15:06;;;;;;;5.25;1.98;;;12.60;60.00;;;;;;5053914;28;20059;-68
2021/01/21 11:17:31;;;;;;;5.63;2.33;;;12.60;59.80;;;;;;5054846;28;20048;-68
2021/01/21 11:19:57;;;;;;;4.40;2.00;;;12.70;60.10;;;;;;5054529;28;20013;-68
2021/01/21 11:22:24;;;;;;;2.72;1.80;;;12.70;59.90;;;;;;5052712;28;20045;-67
2021/01/21 11:24:49;;;;;;;4.47;2.58;;;12.70;60.00;;;;;;5058393;28;20025;-67
2021/01/21 11:27:15;;;;;;;3.38;1.85;;;12.80;60.00;;;;;;5053614;28;20040;-68
2021/01/21 11:29:40;;;;;;;4.43;2.05;;;12.80;59.40;;;;;;5052648;28;20028;-69
2021/01/21 11:32:06;;;;;;;4.07;2.10;;;12.80;59.80;;;;;;5054112;28;20106;-68
2021/01/21 11:34:31;;;;;;;3.50;2.03;;;12.90;59.70;;;;;;5053842;28;20523;-68
2021/01/21 11:36:57;;;;;;;4.45;2.22;;;12.90;59.60;;;;;;5053242;28;20025;-68
2021/01/21 11:39:22;;;;;;;5.55;2.17;;;12.90;59.40;;;;;;5053981;28;20017;-68
2021/01/21 11:41:48;;;;;;;4.22;2.15;;;13.00;59.40;;;;;;5052289;28;20513;-68
2021/01/21 11:44:14;;;;;;;3.10;1.85;;;13.10;59.40;;;;;;5053780;28;20045;-68
2021/01/21 11:46:39;;;;;;;4.28;1.80;;;13.20;59.40;;;;;;5062404;28;20420;-68
2021/01/21 11:49:05;;;;;;;4.82;1.90;;;13.30;59.50;;;;;;5073574;28;20052;-69
2021/01/21 11:51:30;;;;;;;4.03;1.88;;;13.30;59.50;;;;;;5061378;28;20036;-68
2021/01/21 11:53:56;;;;;;;2.65;1.80;;;13.30;59.30;;;;;;5061219;28;20373;-68
2021/01/21 11:56:22;;;;;;;4.20;2.03;;;13.40;59.10;;;;;;5061787;28;20043;-69
2021/01/21 11:58:47;;;;;;;3.67;2.05;;;13.40;58.90;;;;;;5053069;28;20397;-68
2021/01/21 12:01:13;;;;;;;3.22;1.90;;;13.40;59.10;;;;;;5053706;28;20021;-69
2021/01/21 12:03:38;;;;;;;3.38;1.98;;;13.50;59.20;;;;;;5052498;28;20067;-69
2021/01/21 12:06:04;;;;;;;6.75;2.55;;;13.50;58.90;;;;;;5052249;28;20565;-68
2021/01/21 12:08:30;;;;;;;3.92;2.00;;;13.50;59.00;;;;;;5062955;28;20105;-67
2021/01/21 12:10:55;;;;;;;4.22;1.55;;;13.50;59.00;;;;;;5065788;28;20498;-68
2021/01/21 12:13:21;;;;;;;2.88;1.50;;;13.60;58.80;;;;;;5053352;28;20021;-68
2021/01/21 12:15:46;;;;;;;4.15;1.40;;;13.60;58.50;;;;;;5053902;28;20112;-68
2021/01/21 12:18:12;;;;;;;2.47;1.48;;;13.70;58.10;;;;;;5053650;28;20040;-68
2021/01/21 12:20:37;;;;;;;4.20;1.65;;;13.70;58.20;;;;;;5052731;28;20029;-69
2021/01/21 12:23:03;;;;;;;3.22;1.83;;;13.80;58.10;;;;;;5052748;28;20527;-69
2021/01/21 12:25:29;;;;;;;4.35;1.63;;;13.80;58.10;;;;;;5052958;28;20044;-69
2021/01/21 12:27:54;;;;;;;4.78;2.05;;;13.80;58.20;;;;;;5052761;28;20181;-69
2021/01/21 12:30:20;;;;;;;4.25;1.50;;;13.90;57.70;;;;;;5052454;28;20583;-69
2021/01/21 12:32:46;;;;;;;3.58;1.95;;;13.90;58.00;;;;;;5071454;28;20032;-68
2021/01/21 12:35:12;;;;;;;3.67;1.60;;;14.00;58.00;;;;;;5082734;28;20035;-68
2021/01/21 12:37:39;;;;;;;5.40;3.47;;;14.00;58.00;;;;;;5071044;28;20036;-69
2021/01/21 12:40:06;;;;;;;3.30;1.92;;;14.00;57.90;;;;;;5057825;28;20032;-68
2021/01/21 12:42:31;;;;;;;7.47;2.17;;;14.10;57.90;;;;;;5057555;28;20032;-68
2021/01/21 12:44:57;;;;;;;9.00;1.67;;;14.10;58.00;;;;;;5058949;28;20057;-68
2021/01/21 12:47:22;;;;;;;2.65;1.25;;;14.10;57.90;;;;;;5059128;28;20028;-68
2021/01/21 12:49:48;;;;;;;2.30;1.42;;;14.20;57.80;;;;;;5052540;28;20029;-68
2021/01/21 12:52:14;;;;;;;3.60;1.63;;;14.20;57.80;;;;;;5055832;28;20021;-68
2021/01/21 12:54:40;;;;;;;2.42;1.63;;;14.20;57.70;;;;;;5063739;28;20021;-68
2021/01/21 12:57:05;;;;;;;2.22;1.55;;;14.20;57.50;;;;;;5059637;28;20037;-68
2021/01/21 12:59:31;;;;;;;3.00;1.67;;;14.30;57.80;;;;;;5070478;28;20036;-69